sensor_id;sensor_type;location;lat;lon;timestamp;P1;durP1;ratioP1;P2;durP2;ratioP2
13520;SDS011;6832;51.186;3.236;2023-04-03T00:01:20;44.97;;;7.27;;
13520;SDS011;6832;51.186;3.236;2023-04-03T00:03:47;38.63;;;6.83;;
13520;SDS011;6832;51.186;3.236;2023-04-03T00:06:20;36.67;;;7.00;;
13520;SDS011;6832;51.186;3.236;2023-04-03T00:08:51;52.93;;;8.93;;
13520;SDS011;6832;51.186;3.236;2023-04-03T00:11:19;39.50;;;6.83;;
13520;SDS011;6832;51.186;3.236;2023-04-03T00:13:46;36.47;;;6.77;;
13520;SDS011;6832;51.186;3.236;2023-04-03T00:16:13;49.73;;;8.63;;
13520;SDS011;6832;51.186;3.236;2023-04-03T00:18:41;40.53;;;7.07;;
13520;SDS011;6832;51.186;3.236;2023-04-03T00:21:09;38.23;;;7.47;;
13520;SDS011;6832;51.186;3.236;2023-04-03T00:23:42;52.10;;;7.83;;
13520;SDS011;6832;51.186;3.236;2023-04-03T00:26:12;48.87;;;7.80;;
13520;SDS011;6832;51.186;3.236;2023-04-03T00:28:39;51.20;;;8.07;;
13520;SDS011;6832;51.186;3.236;2023-04-03T00:31:06;37.90;;;7.30;;
13520;SDS011;6832;51.186;3.236;2023-04-03T00:33:33;40.03;;;7.10;;
13520;SDS011;6832;51.186;3.236;2023-04-03T00:36:04;31.40;;;7.43;;
13520;SDS011;6832;51.186;3.236;2023-04-03T00:38:32;42.13;;;7.67;;
13520;SDS011;6832;51.186;3.236;2023-04-03T00:41:02;29.57;;;6.60;;
13520;SDS011;6832;51.186;3.236;2023-04-03T00:43:29;42.27;;;7.67;;
13520;SDS011;6832;51.186;3.236;2023-04-03T00:49:06;34.90;;;7.03;;
13520;SDS011;6832;51.186;3.236;2023-04-03T00:51:34;37.93;;;7.17;;
13520;SDS011;6832;51.186;3.236;2023-04-03T00:54:03;73.37;;;9.77;;
13520;SDS011;6832;51.186;3.236;2023-04-03T00:56:33;37.47;;;7.30;;
13520;SDS011;6832;51.186;3.236;2023-04-03T00:59:04;29.47;;;6.93;;
13520;SDS011;6832;51.186;3.236;2023-04-03T01:01:34;41.50;;;7.70;;
13520;SDS011;6832;51.186;3.236;2023-04-03T01:04:03;52.20;;;8.53;;
13520;SDS011;6832;51.186;3.236;2023-04-03T01:06:32;52.40;;;8.23;;
13520;SDS011;6832;51.186;3.236;2023-04-03T01:09:04;47.13;;;7.60;;
13520;SDS011;6832;51.186;3.236;2023-04-03T01:11:33;59.17;;;8.73;;
13520;SDS011;6832;51.186;3.236;2023-04-03T01:14:03;49.40;;;7.47;;
13520;SDS011;6832;51.186;3.236;2023-04-03T01:16:31;36.80;;;7.37;;
13520;SDS011;6832;51.186;3.236;2023-04-03T01:18:58;48.63;;;8.23;;
13520;SDS011;6832;51.186;3.236;2023-04-03T01:27:06;41.60;;;7.77;;
13520;SDS011;6832;51.186;3.236;2023-04-03T01:29:37;47.27;;;8.70;;
13520;SDS011;6832;51.186;3.236;2023-04-03T01:32:05;41.27;;;7.70;;
13520;SDS011;6832;51.186;3.236;2023-04-03T01:34:33;45.77;;;8.10;;
13520;SDS011;6832;51.186;3.236;2023-04-03T01:37:00;38.10;;;7.30;;
13520;SDS011;6832;51.186;3.236;2023-04-03T01:39:27;42.63;;;7.77;;
13520;SDS011;6832;51.186;3.236;2023-04-03T01:41:54;47.87;;;7.97;;
13520;SDS011;6832;51.186;3.236;2023-04-03T01:44:20;36.27;;;6.97;;
13520;SDS011;6832;51.186;3.236;2023-04-03T01:46:47;50.47;;;8.50;;
13520;SDS011;6832;51.186;3.236;2023-04-03T01:49:16;42.83;;;7.27;;
13520;SDS011;6832;51.186;3.236;2023-04-03T01:51:42;35.17;;;7.27;;
13520;SDS011;6832;51.186;3.236;2023-04-03T01:54:09;42.43;;;7.83;;
13520;SDS011;6832;51.186;3.236;2023-04-03T01:56:36;41.60;;;7.70;;
13520;SDS011;6832;51.186;3.236;2023-04-03T01:59:04;36.97;;;6.87;;
13520;SDS011;6832;51.186;3.236;2023-04-03T02:01:32;38.87;;;7.43;;
13520;SDS011;6832;51.186;3.236;2023-04-03T02:03:58;34.30;;;7.80;;
13520;SDS011;6832;51.186;3.236;2023-04-03T02:06:27;34.20;;;6.77;;
13520;SDS011;6832;51.186;3.236;2023-04-03T02:08:53;48.83;;;8.33;;
13520;SDS011;6832;51.186;3.236;2023-04-03T02:11:20;39.07;;;7.67;;
13520;SDS011;6832;51.186;3.236;2023-04-03T02:13:47;43.73;;;7.33;;
13520;SDS011;6832;51.186;3.236;2023-04-03T02:16:14;37.77;;;7.07;;
13520;SDS011;6832;51.186;3.236;2023-04-03T02:18:41;36.60;;;6.93;;
13520;SDS011;6832;51.186;3.236;2023-04-03T02:21:08;38.20;;;7.03;;
13520;SDS011;6832;51.186;3.236;2023-04-03T02:23:37;33.83;;;7.27;;
13520;SDS011;6832;51.186;3.236;2023-04-03T02:26:05;42.53;;;7.87;;
13520;SDS011;6832;51.186;3.236;2023-04-03T02:28:33;36.13;;;7.30;;
13520;SDS011;6832;51.186;3.236;2023-04-03T02:31:00;42.27;;;8.03;;
13520;SDS011;6832;51.186;3.236;2023-04-03T02:33:27;54.80;;;8.47;;
13520;SDS011;6832;51.186;3.236;2023-04-03T02:35:54;50.43;;;8.67;;
13520;SDS011;6832;51.186;3.236;2023-04-03T02:38:22;60.43;;;8.67;;
13520;SDS011;6832;51.186;3.236;2023-04-03T02:40:51;43.70;;;8.03;;
13520;SDS011;6832;51.186;3.236;2023-04-03T02:43:20;35.27;;;6.77;;
13520;SDS011;6832;51.186;3.236;2023-04-03T02:45:47;36.47;;;6.93;;
13520;SDS011;6832;51.186;3.236;2023-04-03T02:48:14;42.47;;;7.33;;
13520;SDS011;6832;51.186;3.236;2023-04-03T02:50:42;42.10;;;6.97;;
13520;SDS011;6832;51.186;3.236;2023-04-03T02:53:09;41.37;;;8.03;;
13520;SDS011;6832;51.186;3.236;2023-04-03T02:55:36;34.77;;;7.37;;
13520;SDS011;6832;51.186;3.236;2023-04-03T02:58:04;36.20;;;7.73;;
13520;SDS011;6832;51.186;3.236;2023-04-03T03:00:31;39.27;;;7.50;;
13520;SDS011;6832;51.186;3.236;2023-04-03T03:02:59;45.63;;;7.90;;
13520;SDS011;6832;51.186;3.236;2023-04-03T03:05:26;42.67;;;7.73;;
13520;SDS011;6832;51.186;3.236;2023-04-03T03:07:54;36.50;;;7.27;;
13520;SDS011;6832;51.186;3.236;2023-04-03T03:10:21;48.80;;;8.10;;
13520;SDS011;6832;51.186;3.236;2023-04-03T03:12:49;37.03;;;7.43;;
13520;SDS011;6832;51.186;3.236;2023-04-03T03:15:17;70.80;;;9.53;;
13520;SDS011;6832;51.186;3.236;2023-04-03T03:17:44;46.60;;;8.70;;
13520;SDS011;6832;51.186;3.236;2023-04-03T03:20:12;40.60;;;7.40;;
13520;SDS011;6832;51.186;3.236;2023-04-03T03:22:40;37.70;;;7.60;;
13520;SDS011;6832;51.186;3.236;2023-04-03T03:25:08;56.30;;;8.77;;
13520;SDS011;6832;51.186;3.236;2023-04-03T03:27:35;34.80;;;6.87;;
13520;SDS011;6832;51.186;3.236;2023-04-03T03:30:02;75.17;;;10.23;;
13520;SDS011;6832;51.186;3.236;2023-04-03T03:32:34;37.87;;;6.97;;
13520;SDS011;6832;51.186;3.236;2023-04-03T03:35:01;40.83;;;7.83;;
13520;SDS011;6832;51.186;3.236;2023-04-03T03:37:29;40.77;;;7.40;;
13520;SDS011;6832;51.186;3.236;2023-04-03T03:39:56;42.07;;;7.70;;
13520;SDS011;6832;51.186;3.236;2023-04-03T03:42:23;34.23;;;6.97;;
13520;SDS011;6832;51.186;3.236;2023-04-03T03:44:51;40.60;;;6.87;;
13520;SDS011;6832;51.186;3.236;2023-04-03T03:47:19;44.37;;;7.43;;
13520;SDS011;6832;51.186;3.236;2023-04-03T03:49:48;44.60;;;7.63;;
13520;SDS011;6832;51.186;3.236;2023-04-03T03:52:17;41.13;;;8.30;;
13520;SDS011;6832;51.186;3.236;2023-04-03T03:54:44;35.27;;;6.60;;
13520;SDS011;6832;51.186;3.236;2023-04-03T03:57:10;45.30;;;7.67;;
13520;SDS011;6832;51.186;3.236;2023-04-03T03:59:37;39.37;;;7.07;;
13520;SDS011;6832;51.186;3.236;2023-04-03T04:02:07;45.67;;;7.63;;
13520;SDS011;6832;51.186;3.236;2023-04-03T04:04:34;43.40;;;7.43;;
13520;SDS011;6832;51.186;3.236;2023-04-03T04:07:05;36.43;;;7.50;;
13520;SDS011;6832;51.186;3.236;2023-04-03T04:09:32;30.23;;;5.97;;
13520;SDS011;6832;51.186;3.236;2023-04-03T04:11:59;39.73;;;7.43;;
13520;SDS011;6832;51.186;3.236;2023-04-03T04:14:27;54.63;;;8.63;;
13520;SDS011;6832;51.186;3.236;2023-04-03T04:16:54;62.90;;;9.10;;
13520;SDS011;6832;51.186;3.236;2023-04-03T04:19:21;49.97;;;7.97;;
13520;SDS011;6832;51.186;3.236;2023-04-03T04:21:49;44.53;;;7.53;;
13520;SDS011;6832;51.186;3.236;2023-04-03T04:24:21;37.17;;;6.83;;
13520;SDS011;6832;51.186;3.236;2023-04-03T04:26:48;42.87;;;7.40;;
13520;SDS011;6832;51.186;3.236;2023-04-03T04:29:16;46.03;;;7.63;;
13520;SDS011;6832;51.186;3.236;2023-04-03T04:31:44;35.63;;;7.33;;
13520;SDS011;6832;51.186;3.236;2023-04-03T04:34:12;38.47;;;7.37;;
13520;SDS011;6832;51.186;3.236;2023-04-03T04:36:39;37.67;;;7.73;;
13520;SDS011;6832;51.186;3.236;2023-04-03T04:39:06;38.47;;;7.33;;
13520;SDS011;6832;51.186;3.236;2023-04-03T04:41:34;51.07;;;8.67;;
13520;SDS011;6832;51.186;3.236;2023-04-03T04:44:01;48.27;;;7.73;;
13520;SDS011;6832;51.186;3.236;2023-04-03T04:46:28;49.90;;;8.20;;
13520;SDS011;6832;51.186;3.236;2023-04-03T04:48:55;32.23;;;7.10;;
13520;SDS011;6832;51.186;3.236;2023-04-03T04:51:22;35.10;;;7.30;;
13520;SDS011;6832;51.186;3.236;2023-04-03T04:53:49;60.57;;;8.93;;
13520;SDS011;6832;51.186;3.236;2023-04-03T04:56:16;31.60;;;7.03;;
13520;SDS011;6832;51.186;3.236;2023-04-03T04:58:44;41.80;;;7.47;;
13520;SDS011;6832;51.186;3.236;2023-04-03T05:01:11;34.17;;;6.97;;
13520;SDS011;6832;51.186;3.236;2023-04-03T05:03:38;36.20;;;7.43;;
13520;SDS011;6832;51.186;3.236;2023-04-03T05:06:06;37.93;;;7.40;;
13520;SDS011;6832;51.186;3.236;2023-04-03T05:08:33;41.57;;;7.03;;
13520;SDS011;6832;51.186;3.236;2023-04-03T05:13:54;31.00;;;6.73;;
13520;SDS011;6832;51.186;3.236;2023-04-03T05:16:21;42.60;;;7.47;;
13520;SDS011;6832;51.186;3.236;2023-04-03T05:18:48;48.67;;;7.93;;
13520;SDS011;6832;51.186;3.236;2023-04-03T05:21:15;59.00;;;9.03;;
13520;SDS011;6832;51.186;3.236;2023-04-03T05:23:44;43.60;;;8.17;;
13520;SDS011;6832;51.186;3.236;2023-04-03T05:26:11;34.33;;;6.87;;
13520;SDS011;6832;51.186;3.236;2023-04-03T05:28:38;43.83;;;7.70;;
13520;SDS011;6832;51.186;3.236;2023-04-03T05:31:07;32.37;;;6.80;;
13520;SDS011;6832;51.186;3.236;2023-04-03T05:33:34;46.10;;;8.03;;
13520;SDS011;6832;51.186;3.236;2023-04-03T05:36:02;38.67;;;7.50;;
13520;SDS011;6832;51.186;3.236;2023-04-03T05:38:30;45.43;;;7.60;;
13520;SDS011;6832;51.186;3.236;2023-04-03T05:40:57;37.00;;;7.47;;
13520;SDS011;6832;51.186;3.236;2023-04-03T05:43:24;38.33;;;6.87;;
13520;SDS011;6832;51.186;3.236;2023-04-03T05:45:51;43.23;;;7.70;;
13520;SDS011;6832;51.186;3.236;2023-04-03T05:48:20;29.53;;;6.83;;
13520;SDS011;6832;51.186;3.236;2023-04-03T05:50:47;47.50;;;8.20;;
13520;SDS011;6832;51.186;3.236;2023-04-03T05:53:17;47.87;;;8.00;;
13520;SDS011;6832;51.186;3.236;2023-04-03T05:56:01;30.37;;;7.30;;
13520;SDS011;6832;51.186;3.236;2023-04-03T05:58:29;40.70;;;7.67;;
13520;SDS011;6832;51.186;3.236;2023-04-03T06:00:56;33.57;;;7.50;;
13520;SDS011;6832;51.186;3.236;2023-04-03T06:03:26;30.60;;;6.53;;
13520;SDS011;6832;51.186;3.236;2023-04-03T06:05:53;48.97;;;8.37;;
13520;SDS011;6832;51.186;3.236;2023-04-03T06:08:20;49.87;;;8.00;;
13520;SDS011;6832;51.186;3.236;2023-04-03T06:10:48;56.20;;;8.37;;
13520;SDS011;6832;51.186;3.236;2023-04-03T06:13:16;38.57;;;6.97;;
13520;SDS011;6832;51.186;3.236;2023-04-03T06:15:43;43.03;;;8.53;;
13520;SDS011;6832;51.186;3.236;2023-04-03T06:18:13;32.30;;;6.80;;
13520;SDS011;6832;51.186;3.236;2023-04-03T06:20:42;39.70;;;7.87;;
13520;SDS011;6832;51.186;3.236;2023-04-03T06:23:09;26.43;;;6.63;;
13520;SDS011;6832;51.186;3.236;2023-04-03T06:25:37;29.10;;;6.80;;
13520;SDS011;6832;51.186;3.236;2023-04-03T06:28:04;24.47;;;6.17;;
13520;SDS011;6832;51.186;3.236;2023-04-03T06:30:34;31.60;;;7.10;;
13520;SDS011;6832;51.186;3.236;2023-04-03T06:33:01;27.87;;;7.03;;
13520;SDS011;6832;51.186;3.236;2023-04-03T06:35:29;52.73;;;8.77;;
13520;SDS011;6832;51.186;3.236;2023-04-03T06:37:58;53.67;;;8.60;;
13520;SDS011;6832;51.186;3.236;2023-04-03T06:40:29;25.87;;;7.17;;
13520;SDS011;6832;51.186;3.236;2023-04-03T06:42:56;30.23;;;6.77;;
13520;SDS011;6832;51.186;3.236;2023-04-03T06:45:27;31.40;;;6.77;;
13520;SDS011;6832;51.186;3.236;2023-04-03T06:47:54;43.77;;;8.27;;
13520;SDS011;6832;51.186;3.236;2023-04-03T06:50:21;30.57;;;7.17;;
13520;SDS011;6832;51.186;3.236;2023-04-03T06:52:48;31.10;;;7.13;;
13520;SDS011;6832;51.186;3.236;2023-04-03T06:55:17;52.37;;;8.57;;
13520;SDS011;6832;51.186;3.236;2023-04-03T06:57:44;30.30;;;7.23;;
13520;SDS011;6832;51.186;3.236;2023-04-03T07:00:12;43.23;;;7.67;;
13520;SDS011;6832;51.186;3.236;2023-04-03T07:02:41;34.00;;;7.47;;
13520;SDS011;6832;51.186;3.236;2023-04-03T07:05:08;51.87;;;8.77;;
13520;SDS011;6832;51.186;3.236;2023-04-03T07:07:36;38.43;;;7.30;;
13520;SDS011;6832;51.186;3.236;2023-04-03T07:10:04;38.87;;;7.50;;
13520;SDS011;6832;51.186;3.236;2023-04-03T07:12:34;56.87;;;9.27;;
13520;SDS011;6832;51.186;3.236;2023-04-03T07:15:14;43.80;;;7.63;;
13520;SDS011;6832;51.186;3.236;2023-04-03T07:17:41;36.00;;;7.87;;
13520;SDS011;6832;51.186;3.236;2023-04-03T07:20:09;54.07;;;8.80;;
13520;SDS011;6832;51.186;3.236;2023-04-03T07:22:36;33.47;;;7.20;;
13520;SDS011;6832;51.186;3.236;2023-04-03T07:25:04;42.33;;;8.53;;
13520;SDS011;6832;51.186;3.236;2023-04-03T07:27:34;33.87;;;8.07;;
13520;SDS011;6832;51.186;3.236;2023-04-03T07:30:01;42.67;;;8.13;;
13520;SDS011;6832;51.186;3.236;2023-04-03T07:32:29;60.80;;;9.40;;
13520;SDS011;6832;51.186;3.236;2023-04-03T07:34:56;48.07;;;8.10;;
13520;SDS011;6832;51.186;3.236;2023-04-03T07:37:23;34.27;;;7.63;;
13520;SDS011;6832;51.186;3.236;2023-04-03T07:39:50;40.73;;;7.97;;
13520;SDS011;6832;51.186;3.236;2023-04-03T07:42:17;45.97;;;8.50;;
13520;SDS011;6832;51.186;3.236;2023-04-03T07:44:48;37.27;;;8.03;;
13520;SDS011;6832;51.186;3.236;2023-04-03T07:47:15;44.63;;;8.43;;
13520;SDS011;6832;51.186;3.236;2023-04-03T07:49:43;40.50;;;8.07;;
13520;SDS011;6832;51.186;3.236;2023-04-03T07:52:10;36.60;;;7.73;;
13520;SDS011;6832;51.186;3.236;2023-04-03T07:54:37;43.27;;;8.20;;
13520;SDS011;6832;51.186;3.236;2023-04-03T07:57:04;55.60;;;10.10;;
13520;SDS011;6832;51.186;3.236;2023-04-03T07:59:31;32.07;;;7.57;;
13520;SDS011;6832;51.186;3.236;2023-04-03T08:02:00;49.70;;;9.17;;
13520;SDS011;6832;51.186;3.236;2023-04-03T08:04:26;36.53;;;7.80;;
13520;SDS011;6832;51.186;3.236;2023-04-03T08:07:11;43.20;;;8.20;;
13520;SDS011;6832;51.186;3.236;2023-04-03T08:09:38;37.80;;;7.93;;
13520;SDS011;6832;51.186;3.236;2023-04-03T08:12:06;34.97;;;8.00;;
13520;SDS011;6832;51.186;3.236;2023-04-03T08:14:33;37.30;;;7.93;;
13520;SDS011;6832;51.186;3.236;2023-04-03T08:17:02;45.83;;;8.63;;
13520;SDS011;6832;51.186;3.236;2023-04-03T08:19:30;40.50;;;8.27;;
13520;SDS011;6832;51.186;3.236;2023-04-03T08:21:58;45.40;;;8.67;;
13520;SDS011;6832;51.186;3.236;2023-04-03T08:24:27;31.47;;;7.57;;
13520;SDS011;6832;51.186;3.236;2023-04-03T08:26:59;47.10;;;8.53;;
13520;SDS011;6832;51.186;3.236;2023-04-03T08:29:26;41.67;;;8.60;;
13520;SDS011;6832;51.186;3.236;2023-04-03T08:31:53;45.03;;;8.07;;
13520;SDS011;6832;51.186;3.236;2023-04-03T08:34:22;33.73;;;7.70;;
13520;SDS011;6832;51.186;3.236;2023-04-03T08:36:49;36.30;;;7.63;;
13520;SDS011;6832;51.186;3.236;2023-04-03T08:39:19;39.23;;;8.33;;
13520;SDS011;6832;51.186;3.236;2023-04-03T08:41:49;47.37;;;8.73;;
13520;SDS011;6832;51.186;3.236;2023-04-03T08:44:18;39.97;;;8.00;;
13520;SDS011;6832;51.186;3.236;2023-04-03T08:47:22;39.13;;;8.67;;
13520;SDS011;6832;51.186;3.236;2023-04-03T08:49:57;33.80;;;7.60;;
13520;SDS011;6832;51.186;3.236;2023-04-03T08:52:27;56.57;;;9.53;;
13520;SDS011;6832;51.186;3.236;2023-04-03T08:55:03;46.63;;;8.03;;
13520;SDS011;6832;51.186;3.236;2023-04-03T08:57:32;32.10;;;8.27;;
13520;SDS011;6832;51.186;3.236;2023-04-03T09:02:53;41.20;;;8.83;;
13520;SDS011;6832;51.186;3.236;2023-04-03T09:05:26;37.60;;;7.97;;
13520;SDS011;6832;51.186;3.236;2023-04-03T09:08:04;38.10;;;8.40;;
13520;SDS011;6832;51.186;3.236;2023-04-03T09:10:38;50.47;;;9.93;;
13520;SDS011;6832;51.186;3.236;2023-04-03T09:13:08;54.33;;;9.13;;
13520;SDS011;6832;51.186;3.236;2023-04-03T09:15:42;41.10;;;8.80;;
13520;SDS011;6832;51.186;3.236;2023-04-03T09:18:12;41.17;;;8.50;;
13520;SDS011;6832;51.186;3.236;2023-04-03T09:20:45;28.77;;;7.80;;
13520;SDS011;6832;51.186;3.236;2023-04-03T09:23:19;61.63;;;10.23;;
13520;SDS011;6832;51.186;3.236;2023-04-03T09:25:53;37.10;;;8.43;;
13520;SDS011;6832;51.186;3.236;2023-04-03T09:28:24;30.67;;;7.80;;
13520;SDS011;6832;51.186;3.236;2023-04-03T09:30:51;32.33;;;8.17;;
13520;SDS011;6832;51.186;3.236;2023-04-03T09:33:19;39.13;;;8.67;;
13520;SDS011;6832;51.186;3.236;2023-04-03T09:39:04;49.93;;;9.23;;
13520;SDS011;6832;51.186;3.236;2023-04-03T09:41:33;36.73;;;8.07;;
13520;SDS011;6832;51.186;3.236;2023-04-03T09:44:00;41.13;;;8.73;;
13520;SDS011;6832;51.186;3.236;2023-04-03T09:46:31;38.77;;;8.47;;
13520;SDS011;6832;51.186;3.236;2023-04-03T09:48:59;38.50;;;8.23;;
13520;SDS011;6832;51.186;3.236;2023-04-03T09:51:28;52.70;;;9.90;;
13520;SDS011;6832;51.186;3.236;2023-04-03T09:53:56;59.07;;;10.20;;
13520;SDS011;6832;51.186;3.236;2023-04-03T09:56:25;28.87;;;7.43;;
13520;SDS011;6832;51.186;3.236;2023-04-03T09:59:06;35.37;;;7.40;;
13520;SDS011;6832;51.186;3.236;2023-04-03T10:01:41;30.33;;;7.47;;
13520;SDS011;6832;51.186;3.236;2023-04-03T10:04:11;32.80;;;7.90;;
13520;SDS011;6832;51.186;3.236;2023-04-03T10:06:42;59.13;;;9.97;;
13520;SDS011;6832;51.186;3.236;2023-04-03T10:09:16;24.07;;;6.77;;
13520;SDS011;6832;51.186;3.236;2023-04-03T10:12:00;25.90;;;6.60;;
13520;SDS011;6832;51.186;3.236;2023-04-03T10:14:30;34.47;;;6.93;;
13520;SDS011;6832;51.186;3.236;2023-04-03T10:17:01;28.20;;;7.40;;
13520;SDS011;6832;51.186;3.236;2023-04-03T10:19:38;29.83;;;6.20;;
13520;SDS011;6832;51.186;3.236;2023-04-03T10:22:20;32.03;;;7.00;;
13520;SDS011;6832;51.186;3.236;2023-04-03T10:24:56;26.60;;;6.40;;
13520;SDS011;6832;51.186;3.236;2023-04-03T10:27:35;28.23;;;7.10;;
13520;SDS011;6832;51.186;3.236;2023-04-03T10:30:32;45.57;;;8.13;;
13520;SDS011;6832;51.186;3.236;2023-04-03T10:39:27;7.30;;;5.10;;
13520;SDS011;6832;51.186;3.236;2023-04-03T10:42:26;9.73;;;4.93;;
13520;SDS011;6832;51.186;3.236;2023-04-03T10:45:06;14.53;;;5.50;;
13520;SDS011;6832;51.186;3.236;2023-04-03T10:47:46;36.10;;;7.13;;
13520;SDS011;6832;51.186;3.236;2023-04-03T10:50:26;35.40;;;7.27;;
13520;SDS011;6832;51.186;3.236;2023-04-03T10:53:04;19.43;;;5.60;;
13520;SDS011;6832;51.186;3.236;2023-04-03T10:55:39;29.03;;;6.30;;
13520;SDS011;6832;51.186;3.236;2023-04-03T10:58:21;28.87;;;6.43;;
13520;SDS011;6832;51.186;3.236;2023-04-03T11:00:57;41.83;;;7.00;;
13520;SDS011;6832;51.186;3.236;2023-04-03T11:03:29;28.67;;;6.47;;
13520;SDS011;6832;51.186;3.236;2023-04-03T11:06:01;28.87;;;6.07;;
13520;SDS011;6832;51.186;3.236;2023-04-03T11:08:33;26.37;;;6.20;;
13520;SDS011;6832;51.186;3.236;2023-04-03T11:11:06;33.87;;;6.67;;
13520;SDS011;6832;51.186;3.236;2023-04-03T11:13:36;24.13;;;5.60;;
13520;SDS011;6832;51.186;3.236;2023-04-03T11:16:09;22.43;;;5.40;;
13520;SDS011;6832;51.186;3.236;2023-04-03T11:18:42;33.73;;;6.93;;
13520;SDS011;6832;51.186;3.236;2023-04-03T11:21:14;29.77;;;6.67;;
13520;SDS011;6832;51.186;3.236;2023-04-03T11:23:47;35.40;;;5.87;;
13520;SDS011;6832;51.186;3.236;2023-04-03T11:26:15;24.40;;;5.80;;
13520;SDS011;6832;51.186;3.236;2023-04-03T11:28:46;32.37;;;6.43;;
13520;SDS011;6832;51.186;3.236;2023-04-03T11:31:32;27.40;;;5.93;;
13520;SDS011;6832;51.186;3.236;2023-04-03T11:34:18;35.60;;;6.27;;
13520;SDS011;6832;51.186;3.236;2023-04-03T11:36:55;32.80;;;6.73;;
13520;SDS011;6832;51.186;3.236;2023-04-03T11:39:26;34.03;;;6.43;;
13520;SDS011;6832;51.186;3.236;2023-04-03T11:44:43;25.80;;;5.67;;
13520;SDS011;6832;51.186;3.236;2023-04-03T11:47:43;27.00;;;5.93;;
13520;SDS011;6832;51.186;3.236;2023-04-03T11:53:01;28.63;;;6.30;;
13520;SDS011;6832;51.186;3.236;2023-04-03T11:58:25;29.47;;;5.93;;
13520;SDS011;6832;51.186;3.236;2023-04-03T12:01:06;28.60;;;5.97;;
13520;SDS011;6832;51.186;3.236;2023-04-03T12:12:32;29.20;;;6.23;;
13520;SDS011;6832;51.186;3.236;2023-04-03T12:15:12;35.37;;;6.50;;
13520;SDS011;6832;51.186;3.236;2023-04-03T12:17:45;35.37;;;6.57;;
13520;SDS011;6832;51.186;3.236;2023-04-03T12:23:30;41.17;;;6.90;;
13520;SDS011;6832;51.186;3.236;2023-04-03T12:26:03;27.57;;;5.83;;
13520;SDS011;6832;51.186;3.236;2023-04-03T12:28:50;35.03;;;6.37;;
13520;SDS011;6832;51.186;3.236;2023-04-03T12:31:19;30.67;;;5.77;;
13520;SDS011;6832;51.186;3.236;2023-04-03T12:36:41;34.57;;;6.30;;
13520;SDS011;6832;51.186;3.236;2023-04-03T12:39:25;28.87;;;6.03;;
13520;SDS011;6832;51.186;3.236;2023-04-03T12:42:29;43.67;;;6.53;;
13520;SDS011;6832;51.186;3.236;2023-04-03T12:45:09;26.10;;;5.77;;
13520;SDS011;6832;51.186;3.236;2023-04-03T12:47:42;25.40;;;5.80;;
13520;SDS011;6832;51.186;3.236;2023-04-03T12:50:16;26.17;;;5.60;;
13520;SDS011;6832;51.186;3.236;2023-04-03T12:52:50;29.17;;;6.40;;
13520;SDS011;6832;51.186;3.236;2023-04-03T12:55:24;30.27;;;5.50;;
13520;SDS011;6832;51.186;3.236;2023-04-03T12:57:51;28.87;;;5.30;;
13520;SDS011;6832;51.186;3.236;2023-04-03T13:00:19;26.83;;;5.83;;
13520;SDS011;6832;51.186;3.236;2023-04-03T13:02:55;44.87;;;6.83;;
13520;SDS011;6832;51.186;3.236;2023-04-03T13:05:22;23.23;;;5.30;;
13520;SDS011;6832;51.186;3.236;2023-04-03T13:07:52;29.83;;;5.57;;
13520;SDS011;6832;51.186;3.236;2023-04-03T13:10:24;30.57;;;5.63;;
13520;SDS011;6832;51.186;3.236;2023-04-03T13:12:52;36.60;;;6.07;;
13520;SDS011;6832;51.186;3.236;2023-04-03T13:15:23;23.77;;;5.73;;
13520;SDS011;6832;51.186;3.236;2023-04-03T13:17:53;31.73;;;5.63;;
13520;SDS011;6832;51.186;3.236;2023-04-03T13:20:22;29.83;;;6.33;;
13520;SDS011;6832;51.186;3.236;2023-04-03T13:22:53;28.37;;;5.73;;
13520;SDS011;6832;51.186;3.236;2023-04-03T13:25:26;28.47;;;5.47;;
13520;SDS011;6832;51.186;3.236;2023-04-03T13:27:56;30.87;;;6.27;;
13520;SDS011;6832;51.186;3.236;2023-04-03T13:30:28;31.47;;;5.93;;
13520;SDS011;6832;51.186;3.236;2023-04-03T13:32:59;23.77;;;5.13;;
13520;SDS011;6832;51.186;3.236;2023-04-03T13:35:37;32.07;;;5.67;;
13520;SDS011;6832;51.186;3.236;2023-04-03T13:38:20;24.10;;;4.87;;
13520;SDS011;6832;51.186;3.236;2023-04-03T13:40:54;28.80;;;5.57;;
13520;SDS011;6832;51.186;3.236;2023-04-03T13:43:23;23.47;;;5.30;;
13520;SDS011;6832;51.186;3.236;2023-04-03T13:45:55;35.43;;;5.93;;
13520;SDS011;6832;51.186;3.236;2023-04-03T13:48:24;20.43;;;4.83;;
13520;SDS011;6832;51.186;3.236;2023-04-03T13:50:57;32.93;;;5.60;;
13520;SDS011;6832;51.186;3.236;2023-04-03T13:53:32;26.07;;;5.37;;
13520;SDS011;6832;51.186;3.236;2023-04-03T13:56:07;24.47;;;5.43;;
13520;SDS011;6832;51.186;3.236;2023-04-03T13:58:36;21.23;;;4.60;;
13520;SDS011;6832;51.186;3.236;2023-04-03T14:01:09;22.43;;;5.53;;
13520;SDS011;6832;51.186;3.236;2023-04-03T14:03:44;25.53;;;5.30;;
13520;SDS011;6832;51.186;3.236;2023-04-03T14:06:13;22.03;;;5.03;;
13520;SDS011;6832;51.186;3.236;2023-04-03T14:08:42;25.53;;;4.83;;
13520;SDS011;6832;51.186;3.236;2023-04-03T14:11:18;26.90;;;6.07;;
13520;SDS011;6832;51.186;3.236;2023-04-03T14:13:47;29.20;;;5.67;;
13520;SDS011;6832;51.186;3.236;2023-04-03T14:16:16;35.10;;;5.87;;
13520;SDS011;6832;51.186;3.236;2023-04-03T14:18:47;25.53;;;5.60;;
13520;SDS011;6832;51.186;3.236;2023-04-03T14:21:16;24.87;;;4.73;;
13520;SDS011;6832;51.186;3.236;2023-04-03T14:23:45;28.33;;;5.87;;
13520;SDS011;6832;51.186;3.236;2023-04-03T14:26:12;21.40;;;4.73;;
13520;SDS011;6832;51.186;3.236;2023-04-03T14:28:44;28.40;;;5.37;;
13520;SDS011;6832;51.186;3.236;2023-04-03T14:31:12;20.00;;;4.40;;
13520;SDS011;6832;51.186;3.236;2023-04-03T14:33:40;19.67;;;4.70;;
13520;SDS011;6832;51.186;3.236;2023-04-03T14:36:11;24.93;;;5.13;;
13520;SDS011;6832;51.186;3.236;2023-04-03T14:38:40;23.03;;;4.87;;
13520;SDS011;6832;51.186;3.236;2023-04-03T14:41:07;24.87;;;5.27;;
13520;SDS011;6832;51.186;3.236;2023-04-03T14:43:37;23.20;;;4.63;;
13520;SDS011;6832;51.186;3.236;2023-04-03T14:46:05;28.73;;;5.33;;
13520;SDS011;6832;51.186;3.236;2023-04-03T14:48:38;20.27;;;4.37;;
13520;SDS011;6832;51.186;3.236;2023-04-03T14:51:05;29.80;;;5.60;;
13520;SDS011;6832;51.186;3.236;2023-04-03T14:53:32;23.80;;;4.87;;
13520;SDS011;6832;51.186;3.236;2023-04-03T14:55:59;33.73;;;5.67;;
13520;SDS011;6832;51.186;3.236;2023-04-03T14:58:27;30.70;;;5.60;;
13520;SDS011;6832;51.186;3.236;2023-04-03T15:00:57;38.63;;;6.30;;
13520;SDS011;6832;51.186;3.236;2023-04-03T15:03:25;32.10;;;5.70;;
13520;SDS011;6832;51.186;3.236;2023-04-03T15:05:52;73.53;;;8.97;;
13520;SDS011;6832;51.186;3.236;2023-04-03T15:08:20;34.23;;;6.00;;
13520;SDS011;6832;51.186;3.236;2023-04-03T15:10:51;25.73;;;5.20;;
13520;SDS011;6832;51.186;3.236;2023-04-03T15:13:20;24.90;;;5.20;;
13520;SDS011;6832;51.186;3.236;2023-04-03T15:15:48;27.00;;;5.30;;
13520;SDS011;6832;51.186;3.236;2023-04-03T15:18:17;29.10;;;5.20;;
13520;SDS011;6832;51.186;3.236;2023-04-03T15:20:47;32.40;;;5.80;;
13520;SDS011;6832;51.186;3.236;2023-04-03T15:23:15;23.57;;;5.13;;
13520;SDS011;6832;51.186;3.236;2023-04-03T15:25:42;21.63;;;5.13;;
13520;SDS011;6832;51.186;3.236;2023-04-03T15:28:14;24.80;;;4.90;;
13520;SDS011;6832;51.186;3.236;2023-04-03T15:30:45;23.27;;;5.27;;
13520;SDS011;6832;51.186;3.236;2023-04-03T15:33:13;22.27;;;4.80;;
13520;SDS011;6832;51.186;3.236;2023-04-03T15:35:42;23.37;;;5.00;;
13520;SDS011;6832;51.186;3.236;2023-04-03T15:38:11;23.50;;;5.27;;
13520;SDS011;6832;51.186;3.236;2023-04-03T15:40:38;25.87;;;5.07;;
13520;SDS011;6832;51.186;3.236;2023-04-03T15:43:05;20.37;;;4.87;;
13520;SDS011;6832;51.186;3.236;2023-04-03T15:45:33;25.83;;;5.43;;
13520;SDS011;6832;51.186;3.236;2023-04-03T15:48:02;28.50;;;5.47;;
13520;SDS011;6832;51.186;3.236;2023-04-03T15:50:30;26.60;;;4.93;;
13520;SDS011;6832;51.186;3.236;2023-04-03T15:52:58;24.33;;;5.23;;